Pontyberem, United Kingdom
Current Conditions -  °F | °C
As of 9:50 AM on Sunday 26 Oct 2014 (Local Time) from EGOP Reporting Station
Overcast Overcast  
Wind Chill: 59°   Ceiling: 3200
Heat Index: 59°   Visibility: 6mi
Dew Point: 52°   Wind: 26mph
Humidity: 77%   Direction: 220°SW
Pressure: 30.06"   Gusts: NA
Location:  51.78°N, 4.17°W
Report Text: EGOP 260850Z AUTO 22023KT 9000 // FEW023/// OVC032/// 15/11 Q1018
Loading
Personal Weather Stations






























Interactive Weather Map
Tropical Storm Tracking
New forecast layout! Learn more

10-Day Weather Forecast

Advertisements
Track Severe Weather on mobile